Time;durP1;ratioP1;P1;durP2;ratioP2;P2;SDS_P1;SDS_P2;PMS_P1;PMS_P2;Temp;Humidity;BMP_temperature;BMP_pressure;BME280_temperature;BME280_humidity;BME280_pressure;Samples;Min_cycle;Max_cycle;Signal;HPM_P1;HPM_P2
2022/11/24 00:01:06;;;;;;;43.77;15.90;;;;;;;2.70;100.00;99838.25;4951861;28;20563;-74
2022/11/24 00:03:32;;;;;;;26.77;14.70;;;;;;;2.68;100.00;99831.44;4954121;28;20027;-73
2022/11/24 00:06:06;;;;;;;25.67;13.70;;;;;;;2.70;100.00;99838.25;4950256;28;20089;-74
2022/11/24 00:08:33;;;;;;;25.63;13.15;;;;;;;2.67;100.00;99835.03;4954213;28;20041;-75
2022/11/24 00:11:19;;;;;;;24.52;13.82;;;;;;;2.73;100.00;99851.16;4950289;28;20473;-74
2022/11/24 00:13:45;;;;;;;31.98;13.38;;;;;;;2.71;100.00;99842.53;4968422;28;20053;-74
2022/11/24 00:16:20;;;;;;;35.75;14.98;;;;;;;2.67;100.00;99835.91;4960207;28;20406;-74
2022/11/24 00:18:47;;;;;;;31.90;16.15;;;;;;;2.68;100.00;99834.91;4977299;28;20426;-74
2022/11/24 00:21:14;;;;;;;31.23;14.88;;;;;;;2.66;100.00;99831.56;4950446;28;20027;-74
2022/11/24 00:23:40;;;;;;;30.08;13.60;;;;;;;2.64;100.00;99832.69;4954883;28;20129;-74
2022/11/24 00:26:12;;;;;;;40.65;15.20;;;;;;;2.63;100.00;99836.28;4954226;28;20126;-74
2022/11/24 00:28:39;;;;;;;28.08;13.73;;;;;;;2.63;100.00;99836.28;4947086;28;20066;-74
2022/11/24 00:31:18;;;;;;;28.90;13.93;;;;;;;2.65;100.00;99831.72;4949974;28;20054;-74
2022/11/24 00:33:45;;;;;;;28.50;14.80;;;;;;;2.66;100.00;99841.28;4966290;28;20085;-74
2022/11/24 00:36:11;;;;;;;30.85;13.50;;;;;;;2.62;100.00;99840.75;4950005;28;20051;-74
2022/11/24 00:38:36;;;;;;;31.30;12.77;;;;;;;2.64;100.00;99849.31;4953903;28;20475;-74
2022/11/24 00:41:01;;;;;;;28.77;14.27;;;;;;;2.62;100.00;99848.66;4949676;28;20480;-74
2022/11/24 00:43:27;;;;;;;27.00;13.33;;;;;;;2.60;100.00;99844.44;4993065;23;20185;-73
2022/11/24 00:45:52;;;;;;;24.70;12.77;;;;;;;2.65;100.00;99844.91;4964292;28;20774;-71
2022/11/24 00:48:17;;;;;;;27.73;13.27;;;;;;;2.68;100.00;99839.34;4980686;28;20053;-71
2022/11/24 00:50:43;;;;;;;28.70;13.27;;;;;;;2.66;100.00;99838.66;4984842;28;20530;-73
2022/11/24 00:53:08;;;;;;;24.43;12.57;;;;;;;2.66;100.00;99836.84;4987347;28;20399;-73
2022/11/24 00:55:33;;;;;;;25.07;12.30;;;;;;;2.68;100.00;99834.91;4984632;28;20297;-73
2022/11/24 00:57:59;;;;;;;30.90;13.60;;;;;;;2.66;100.00;99846.56;4987706;28;20034;-74
2022/11/24 01:00:25;;;;;;;25.40;13.50;;;;;;;2.64;100.00;99832.69;5004750;28;20029;-74
2022/11/24 01:02:51;;;;;;;29.75;12.82;;;;;;;2.70;100.00;99847.97;5021353;28;20054;-74
2022/11/24 01:05:16;;;;;;;29.95;13.32;;;;;;;2.68;100.00;99839.34;4985077;28;20080;-74
2022/11/24 01:07:42;;;;;;;22.45;12.38;;;;;;;2.72;100.00;99835.50;4983777;28;20046;-73
2022/11/24 01:10:07;;;;;;;25.67;13.07;;;;;;;2.64;100.00;99843.22;4989625;28;20096;-71
2022/11/24 01:12:34;;;;;;;21.27;12.40;;;;;;;2.63;100.00;99841.56;4987593;28;20034;-74
2022/11/24 01:14:59;;;;;;;25.85;13.10;;;;;;;2.62;100.00;99834.63;4987046;28;20034;-74
2022/11/24 01:17:25;;;;;;;26.57;13.20;;;;;;;2.67;100.00;99843.81;4984957;28;20037;-74
2022/11/24 01:19:51;;;;;;;27.42;13.18;;;;;;;2.66;100.00;99847.38;4999120;28;20349;-74
2022/11/24 01:22:16;;;;;;;26.30;12.40;;;;;;;2.72;100.00;99848.69;4992469;28;20074;-74
2022/11/24 01:24:42;;;;;;;26.20;12.13;;;;;;;2.68;100.00;99850.72;4989815;28;20031;-73
2022/11/24 01:27:07;;;;;;;27.80;13.13;;;;;;;2.66;100.00;99854.47;5000306;28;20412;-70
2022/11/24 01:29:32;;;;;;;21.50;12.50;;;;;;;2.71;100.00;99854.91;4990101;28;20034;-72
2022/11/24 01:31:58;;;;;;;28.00;13.05;;;;;;;2.68;100.00;99850.72;4988908;28;20043;-73
2022/11/24 01:34:23;;;;;;;25.53;13.37;;;;;;;2.70;100.00;99856.72;4984368;28;20479;-74
2022/11/24 01:36:49;;;;;;;33.47;13.03;;;;;;;2.69;100.00;99857.69;5022910;28;20277;-72
2022/11/24 01:39:14;;;;;;;31.55;13.30;;;;;;;2.71;100.00;99850.44;4995263;28;20038;-73
2022/11/24 01:41:39;;;;;;;29.43;13.03;;;;;;;2.65;100.00;99860.72;5013703;28;20515;-73
2022/11/24 01:44:23;;;;;;;26.67;13.03;;;;;;;2.71;100.00;99862.81;4984256;28;20038;-72
2022/11/24 01:46:53;;;;;;;25.20;13.20;;;;;;;2.71;100.00;99873.34;4987594;28;20289;-72
2022/11/24 01:49:38;;;;;;;25.92;13.32;;;;;;;2.78;100.00;99877.13;4989638;28;20035;-72
2022/11/24 01:52:12;;;;;;;26.08;11.95;;;;;;;2.82;100.00;99883.78;4984102;28;20038;-73
2022/11/24 01:54:46;;;;;;;27.65;12.23;;;;;;;2.80;100.00;99884.91;4983640;28;20049;-70
2022/11/24 01:57:19;;;;;;;27.35;14.70;;;;;;;2.81;100.00;99879.50;4970214;28;20038;-71
2022/11/24 01:59:47;;;;;;;27.90;12.77;;;;;;;2.82;100.00;99881.16;4989859;28;20399;-73
2022/11/24 02:02:16;;;;;;;31.30;12.50;;;;;;;2.81;100.00;99889.19;4972814;28;20026;-74
2022/11/24 02:04:42;;;;;;;;;;;;;;;2.81;100.00;99876.88;4997524;28;20039;-74
2022/11/24 02:07:09;;;;;;;25.73;12.13;;;;;;;2.86;100.00;99900.19;4988914;28;19917;-73
2022/11/24 02:10:09;;;;;;;27.92;11.80;;;;;;;2.79;100.00;99899.88;4987401;28;20042;-73
2022/11/24 02:12:35;;;;;;;24.70;11.55;;;;;;;2.80;100.00;99901.53;4949698;28;20455;-74
2022/11/24 02:15:01;;;;;;;27.00;12.52;;;;;;;2.84;100.00;99902.97;4983602;28;20034;-74
2022/11/24 02:17:26;;;;;;;24.65;12.15;;;;;;;2.87;100.00;99901.84;4983158;28;20574;-74
2022/11/24 02:20:00;;;;;;;26.90;13.93;;;;;;;2.86;100.00;99910.75;4984493;28;20045;-74
2022/11/24 02:22:41;;;;;;;21.02;11.82;;;;;;;2.87;100.00;99912.41;4983943;28;20313;-74
2022/11/24 02:25:21;;;;;;;23.88;11.50;;;;;;;2.86;100.00;99911.56;4983323;28;20038;-72
2022/11/24 02:27:47;;;;;;;24.77;12.45;;;;;;;2.86;100.00;99910.75;4984789;28;20413;-73
2022/11/24 02:30:13;;;;;;;24.83;12.88;;;;;;;2.86;100.00;99914.22;4999644;28;20041;-74
2022/11/24 02:32:41;;;;;;;29.97;13.20;;;;;;;2.85;100.00;99923.06;5012898;28;20552;-74
2022/11/24 02:35:07;;;;;;;28.90;12.80;;;;;;;2.86;100.00;99929.19;4985516;28;20022;-73
2022/11/24 02:37:32;;;;;;;28.23;13.07;;;;;;;2.89;100.00;99937.66;4987157;28;20164;-73
2022/11/24 02:39:58;;;;;;;27.77;13.20;;;;;;;2.89;100.00;99931.56;4989354;28;20449;-73
2022/11/24 02:42:25;;;;;;;26.47;12.60;;;;;;;2.88;100.00;99930.72;4993739;28;20045;-73
2022/11/24 02:44:57;;;;;;;21.35;12.10;;;;;;;2.91;100.00;99943.63;5013653;28;20053;-72
2022/11/24 02:47:22;;;;;;;29.15;11.77;;;;;;;2.92;100.00;99941.84;4992519;28;20046;-71
2022/11/24 02:49:48;;;;;;;29.00;13.77;;;;;;;2.88;100.00;99940.41;4980815;28;20090;-74
2022/11/24 02:52:13;;;;;;;21.73;11.47;;;;;;;2.87;100.00;99934.31;4983102;28;20488;-73
2022/11/24 02:54:38;;;;;;;28.70;13.57;;;;;;;2.90;100.00;99941.97;4981741;28;20390;-73
2022/11/24 02:57:04;;;;;;;22.73;11.90;;;;;;;2.90;100.00;99933.22;4981611;28;20161;-74
2022/11/24 02:59:30;;;;;;;28.00;12.23;;;;;;;2.92;100.00;99940.03;4981224;28;20109;-74
2022/11/24 03:01:55;;;;;;;25.90;12.48;;;;;;;2.92;100.00;99944.47;5025132;28;20462;-74
2022/11/24 03:04:20;;;;;;;32.40;13.63;;;;;;;2.89;100.00;99950.00;4992460;28;20037;-73
2022/11/24 03:06:46;;;;;;;30.17;11.50;;;;;;;2.96;100.00;99956.44;5018337;28;20900;-73
2022/11/24 03:09:11;;;;;;;29.73;13.53;;;;;;;2.92;100.00;99957.66;4990785;28;20938;-74
2022/11/24 03:11:37;;;;;;;21.40;12.13;;;;;;;2.93;100.00;99960.16;4982780;28;20030;-74
2022/11/24 03:14:03;;;;;;;24.98;12.95;;;;;;;3.04;100.00;99961.03;4982736;28;20040;-73
2022/11/24 03:16:28;;;;;;;21.58;11.60;;;;;;;3.03;100.00;99943.56;4985153;28;20537;-74
2022/11/24 03:18:53;;;;;;;29.73;12.53;;;;;;;3.00;100.00;99954.34;5017012;28;20044;-73
2022/11/24 03:21:19;;;;;;;29.27;12.15;;;;;;;3.01;100.00;99962.13;4992001;28;20042;-74
2022/11/24 03:23:45;;;;;;;23.57;11.57;;;;;;;3.04;100.00;99961.03;5012543;28;20034;-73
2022/11/24 03:26:16;;;;;;;27.27;12.90;;;;;;;3.04;100.00;99966.31;4984662;28;20108;-74
2022/11/24 03:28:42;;;;;;;24.60;11.90;;;;;;;3.09;100.00;99967.59;5015365;28;20043;-70
2022/11/24 03:31:08;;;;;;;26.67;14.43;;;;;;;3.02;100.00;99969.09;4998806;28;20053;-73
2022/11/24 03:33:35;;;;;;;26.17;12.77;;;;;;;3.06;100.00;99970.47;4983147;28;20038;-73
2022/11/24 03:36:00;;;;;;;25.67;12.82;;;;;;;3.08;100.00;99968.53;4982229;28;20588;-74
2022/11/24 03:38:26;;;;;;;26.63;12.48;;;;;;;3.08;100.00;99960.63;5002034;28;20042;-73
2022/11/24 03:40:51;;;;;;;22.15;12.60;;;;;;;3.08;100.00;99971.19;4985775;28;20030;-74
2022/11/24 03:43:16;;;;;;;24.13;12.03;;;;;;;3.15;100.00;99977.59;4994639;28;20408;-74
2022/11/24 03:45:46;;;;;;;19.77;11.90;;;;;;;3.21;100.00;99981.50;5012165;28;20344;-71
2022/11/24 03:48:12;;;;;;;31.83;12.95;;;;;;;3.21;100.00;99984.16;4980990;28;20267;-74
2022/11/24 03:50:37;;;;;;;26.70;11.38;;;;;;;3.28;100.00;99981.81;4965697;28;20050;-73
2022/11/24 03:53:03;;;;;;;27.23;12.07;;;;;;;3.38;100.00;99988.78;4984477;28;20038;-74
2022/11/24 03:55:28;;;;;;;25.87;13.20;;;;;;;3.43;100.00;99982.25;4982673;28;20137;-74
2022/11/24 03:57:53;;;;;;;28.63;12.55;;;;;;;3.30;100.00;99983.34;4981804;28;20451;-73
2022/11/24 04:00:19;;;;;;;30.87;13.30;;;;;;;3.25;100.00;99984.69;4992068;28;20599;-74
2022/11/24 04:02:44;;;;;;;28.27;13.03;;;;;;;3.30;100.00;99980.72;4981045;28;20443;-74
2022/11/24 04:05:09;;;;;;;21.53;12.23;;;;;;;3.36;100.00;99981.97;4978983;28;20557;-74
2022/11/24 04:07:35;;;;;;;24.60;11.67;;;;;;;3.43;100.00;99987.53;4990258;28;20325;-73
2022/11/24 04:10:00;;;;;;;30.40;12.40;;;;;;;3.37;100.00;99986.25;4990645;28;20087;-74
2022/11/24 04:12:44;;;;;;;25.13;12.25;;;;;;;3.42;100.00;99993.78;4982302;28;20037;-73
2022/11/24 04:15:15;;;;;;;30.05;13.52;;;;;;;3.35;100.00;99986.41;5013581;28;20038;-74
2022/11/24 04:17:41;;;;;;;25.50;12.27;;;;;;;3.32;100.00;99994.56;4981721;28;20050;-74
2022/11/24 04:20:07;;;;;;;23.58;12.75;;;;;;;3.43;100.00;99993.66;4984266;28;20030;-73
2022/11/24 04:22:33;;;;;;;26.63;12.52;;;;;;;3.40;100.00;99998.38;4979813;28;20037;-74
2022/11/24 04:24:58;;;;;;;24.90;11.77;;;;;;;3.40;100.00;100004.47;4989724;28;20429;-74
2022/11/24 04:27:23;;;;;;;30.83;12.87;;;;;;;3.36;100.00;99993.34;4985138;28;20077;-74
2022/11/24 04:29:49;;;;;;;32.33;13.23;;;;;;;3.35;100.00;99999.59;4981827;28;20030;-74
2022/11/24 04:32:15;;;;;;;;;;;;;;;3.38;100.00;99995.88;4985864;28;20122;-74
2022/11/24 04:34:41;;;;;;;26.05;12.20;;;;;;;3.38;100.00;99988.78;4983271;28;19925;-73
2022/11/24 04:37:06;;;;;;;23.37;13.07;;;;;;;3.47;100.00;99996.88;4987466;28;20030;-74
2022/11/24 04:39:31;;;;;;;24.90;13.10;;;;;;;3.44;100.00;99999.75;4986139;28;20042;-74
2022/11/24 04:41:57;;;;;;;32.92;13.20;;;;;;;3.48;100.00;99995.88;4988657;28;20038;-71
2022/11/24 04:44:22;;;;;;;22.80;13.17;;;;;;;3.45;100.00;100009.34;4987466;28;20049;-73
2022/11/24 04:46:47;;;;;;;31.33;13.13;;;;;;;3.45;100.00;100004.06;4984488;28;20038;-73
2022/11/24 04:49:13;;;;;;;28.67;13.27;;;;;;;3.47;100.00;100013.53;4985666;28;20491;-73
2022/11/24 04:51:39;;;;;;;41.47;14.70;;;;;;;3.46;100.00;100024.22;5014826;28;20448;-72
2022/11/24 04:54:06;;;;;;;31.23;14.65;;;;;;;3.46;100.00;100030.31;4987694;28;20066;-74
2022/11/24 04:56:32;;;;;;;21.00;12.40;;;;;;;3.48;100.00;100032.84;4985648;28;20046;-73
2022/11/24 04:58:58;;;;;;;30.17;13.43;;;;;;;3.43;100.00;100027.94;4990942;28;20034;-72
2022/11/24 05:01:23;;;;;;;35.88;15.80;;;;;;;3.45;100.00;100035.75;4986690;28;20538;-73
2022/11/24 05:03:48;;;;;;;28.90;13.80;;;;;;;3.43;100.00;100035.88;4984397;28;20037;-74
2022/11/24 05:06:14;;;;;;;35.83;13.50;;;;;;;3.42;100.00;100033.34;4987267;28;20293;-73
2022/11/24 05:08:39;;;;;;;26.67;13.53;;;;;;;3.44;100.00;100041.97;4998375;28;20050;-74
2022/11/24 05:11:05;;;;;;;28.63;13.43;;;;;;;3.42;100.00;100039.50;4983459;28;20092;-73
2022/11/24 05:13:31;;;;;;;28.52;14.18;;;;;;;3.48;100.00;100046.03;4988069;28;20730;-73
2022/11/24 05:15:56;;;;;;;35.95;14.35;;;;;;;3.47;100.00;100052.28;4988693;28;20034;-73
2022/11/24 05:18:22;;;;;;;31.27;14.17;;;;;;;3.52;100.00;100055.34;4986518;28;20088;-71
2022/11/24 05:20:48;;;;;;;32.92;14.15;;;;;;;3.63;100.00;100062.31;5018581;28;20050;-72
2022/11/24 05:23:14;;;;;;;27.95;13.30;;;;;;;3.58;100.00;100055.66;4988409;28;20042;-72
2022/11/24 05:25:39;;;;;;;32.50;13.73;;;;;;;3.64;100.00;100054.28;4986416;28;20030;-72
2022/11/24 05:28:08;;;;;;;32.33;13.60;;;;;;;3.71;100.00;100058.03;4993001;28;20507;-74
2022/11/24 05:30:38;;;;;;;27.77;14.25;;;;;;;3.71;100.00;100057.22;4985022;28;20520;-73
2022/11/24 05:33:04;;;;;;;26.80;12.75;;;;;;;3.69;100.00;100052.06;4970862;28;20093;-74
2022/11/24 05:35:30;;;;;;;27.15;12.50;;;;;;;3.69;100.00;100057.34;4987536;28;20092;-73
2022/11/24 05:37:57;;;;;;;23.77;13.73;;;;;;;3.67;100.00;100055.81;4980490;28;20434;-71
2022/11/24 05:40:23;;;;;;;34.72;12.85;;;;;;;3.67;100.00;100056.63;4986366;28;20109;-73
2022/11/24 05:42:48;;;;;;;30.10;13.77;;;;;;;3.65;100.00;100058.56;4987025;28;20118;-73
2022/11/24 05:45:17;;;;;;;32.77;13.37;;;;;;;3.70;100.00;100056.38;4984622;28;20034;-73
2022/11/24 05:47:42;;;;;;;31.85;14.30;;;;;;;3.74;100.00;100062.22;4986833;28;20297;-71
2022/11/24 05:50:10;;;;;;;31.90;13.38;;;;;;;3.75;100.00;100067.38;4986344;28;20050;-73
2022/11/24 05:52:35;;;;;;;34.10;13.68;;;;;;;3.76;100.00;100068.19;4984519;28;20038;-74
2022/11/24 05:55:01;;;;;;;25.33;12.40;;;;;;;3.81;100.00;100073.91;4998718;28;20038;-76
2022/11/24 05:57:26;;;;;;;28.13;13.93;;;;;;;3.73;100.00;100074.59;4990243;28;20030;-74
2022/11/24 05:59:52;;;;;;;34.40;12.73;;;;;;;3.71;100.00;100068.59;5002610;28;20034;-71
2022/11/24 06:02:18;;;;;;;29.30;13.93;;;;;;;3.77;100.00;100060.16;4985866;28;20022;-72
2022/11/24 06:04:43;;;;;;;26.52;14.68;;;;;;;3.71;100.00;100068.59;4987775;28;20111;-74
2022/11/24 06:07:10;;;;;;;32.47;14.00;;;;;;;3.70;100.00;100071.38;4985868;28;20035;-73
2022/11/24 06:09:37;;;;;;;31.98;13.38;;;;;;;3.71;100.00;100065.97;4993804;28;20281;-74
2022/11/24 06:12:04;;;;;;;34.25;13.98;;;;;;;3.72;100.00;100067.66;4986218;28;20045;-72
2022/11/24 06:14:30;;;;;;;31.02;14.65;;;;;;;3.74;100.00;100078.06;4987634;28;20491;-74
2022/11/24 06:16:55;;;;;;;31.70;14.47;;;;;;;3.83;100.00;100074.59;4970020;28;20073;-73
2022/11/24 06:19:20;;;;;;;33.17;14.57;;;;;;;3.86;100.00;100078.78;4984056;28;20289;-73
2022/11/24 06:21:46;;;;;;;38.30;15.13;;;;;;;3.86;100.00;100081.41;4985286;28;20076;-74
2022/11/24 06:24:11;;;;;;;38.43;14.37;;;;;;;3.85;100.00;100087.69;4987491;28;20030;-72
2022/11/24 06:26:37;;;;;;;30.90;14.38;;;;;;;3.80;100.00;100088.91;4984270;28;20480;-70
2022/11/24 06:29:02;;;;;;;24.43;13.13;;;;;;;3.80;100.00;100094.19;4987562;28;20042;-71
2022/11/24 06:31:27;;;;;;;33.67;13.97;;;;;;;3.79;100.00;100095.19;4997222;28;20034;-72
2022/11/24 06:33:53;;;;;;;29.30;13.27;;;;;;;3.83;100.00;100110.75;4985559;28;20285;-74
2022/11/24 06:36:19;;;;;;;31.92;14.55;;;;;;;3.86;100.00;100115.75;4983514;28;20026;-74
2022/11/24 06:38:44;;;;;;;34.50;14.77;;;;;;;3.78;100.00;100106.69;4986908;28;20541;-73
2022/11/24 06:41:13;;;;;;;31.47;14.67;;;;;;;3.94;100.00;100122.03;4980393;28;20448;-73
2022/11/24 06:43:38;;;;;;;36.95;14.07;;;;;;;3.94;100.00;100129.97;4967183;28;20042;-73
2022/11/24 06:46:04;;;;;;;30.00;14.18;;;;;;;3.89;100.00;100126.06;4985745;28;20559;-72
2022/11/24 06:48:30;;;;;;;33.95;14.18;;;;;;;3.89;100.00;100118.16;4987061;28;20038;-72
2022/11/24 06:50:59;;;;;;;38.78;14.45;;;;;;;3.91;100.00;100139.94;4988760;28;20542;-72
2022/11/24 06:53:25;;;;;;;36.22;14.43;;;;;;;3.94;100.00;100144.97;4986425;28;20030;-72
2022/11/24 06:55:51;;;;;;;28.77;14.52;;;;;;;4.03;100.00;100152.09;4995142;28;20104;-72
2022/11/24 06:58:16;;;;;;;27.13;13.85;;;;;;;4.01;100.00;100146.94;4989923;28;20894;-72
2022/11/24 07:00:42;;;;;;;37.60;14.60;;;;;;;4.03;100.00;100154.75;5001851;28;20042;-72
2022/11/24 07:03:14;;;;;;;38.05;15.32;;;;;;;4.07;100.00;100148.19;4987026;28;20066;-72
2022/11/24 07:05:39;;;;;;;29.27;13.77;;;;;;;4.08;100.00;100152.53;4986765;28;20042;-72
2022/11/24 07:08:05;;;;;;;36.53;15.00;;;;;;;4.05;100.00;100147.53;4995113;28;20045;-72
2022/11/24 07:10:30;;;;;;;37.50;15.63;;;;;;;4.04;100.00;100156.41;4984961;28;20076;-72
2022/11/24 07:12:55;;;;;;;35.27;17.00;;;;;;;4.06;100.00;100158.91;4981448;28;20046;-72
2022/11/24 07:15:20;;;;;;;30.60;15.73;;;;;;;4.11;100.00;100160.16;4984585;28;20034;-72
2022/11/24 07:17:46;;;;;;;45.60;16.77;;;;;;;4.13;100.00;100160.03;4982905;28;20047;-72
2022/11/24 07:20:11;;;;;;;34.13;17.13;;;;;;;4.15;100.00;100158.94;4982729;28;20034;-72
2022/11/24 07:22:37;;;;;;;32.30;16.03;;;;;;;4.08;100.00;100155.16;4983633;28;20046;-72
2022/11/24 07:25:06;;;;;;;31.40;15.47;;;;;;;4.21;100.00;100163.69;4998468;28;20153;-72
2022/11/24 07:27:32;;;;;;;37.58;17.98;;;;;;;4.21;100.00;100171.63;4981288;28;20038;-72
2022/11/24 07:29:58;;;;;;;32.08;14.75;;;;;;;4.18;100.00;100177.16;4982855;28;20500;-72
2022/11/24 07:32:23;;;;;;;35.45;16.13;;;;;;;4.04;100.00;100172.25;4989452;28;20042;-72
2022/11/24 07:34:48;;;;;;;35.93;15.87;;;;;;;4.09;100.00;100175.31;5020220;28;20042;-72
2022/11/24 07:37:14;;;;;;;39.73;15.67;;;;;;;4.04;100.00;100174.88;4986130;28;20034;-72
2022/11/24 07:39:39;;;;;;;32.63;15.27;;;;;;;4.02;100.00;100171.53;4985945;28;20042;-72
2022/11/24 07:42:05;;;;;;;35.50;16.40;;;;;;;4.04;100.00;100182.81;4986004;28;20030;-72
2022/11/24 07:44:30;;;;;;;32.78;18.02;;;;;;;4.06;100.00;100178.25;5000119;28;20069;-72
2022/11/24 07:46:56;;;;;;;47.03;19.00;;;;;;;4.09;100.00;100183.25;4983648;28;20085;-71
2022/11/24 07:49:21;;;;;;;33.53;14.63;;;;;;;4.08;100.00;100189.50;4986001;28;20033;-72
2022/11/24 07:51:47;;;;;;;33.07;15.83;;;;;;;4.16;100.00;100202.88;5017492;28;20491;-72
2022/11/24 07:54:12;;;;;;;33.47;17.53;;;;;;;4.14;100.00;100207.44;5006868;28;20491;-72
2022/11/24 07:56:37;;;;;;;42.03;17.40;;;;;;;4.17;100.00;100207.19;4988021;28;20131;-72
2022/11/24 07:59:03;;;;;;;35.23;15.97;;;;;;;4.34;100.00;100218.94;4995606;28;20096;-72
2022/11/24 08:01:28;;;;;;;30.73;15.40;;;;;;;4.27;100.00;100216.97;4982286;28;20030;-72
2022/11/24 08:03:53;;;;;;;32.60;15.87;;;;;;;4.23;100.00;100219.03;5015956;28;20276;-72
2022/11/24 08:06:19;;;;;;;35.47;16.10;;;;;;;4.18;100.00;100222.06;4986171;28;20472;-72
2022/11/24 08:08:46;;;;;;;43.53;18.05;;;;;;;4.21;100.00;100232.41;4988869;28;20108;-72
2022/11/24 08:11:14;;;;;;;37.10;15.40;;;;;;;4.25;100.00;100230.31;5002904;28;20038;-72
2022/11/24 08:13:39;;;;;;;30.95;15.98;;;;;;;4.26;100.00;100231.13;4998508;28;20034;-72
2022/11/24 08:16:23;;;;;;;37.78;18.38;;;;;;;4.26;100.00;100233.78;4990064;28;20068;-71
2022/11/24 08:18:50;;;;;;;37.28;17.92;;;;;;;4.27;100.00;100232.81;4992388;28;20073;-72
2022/11/24 08:21:16;;;;;;;37.72;16.77;;;;;;;4.28;100.00;100235.31;5009412;28;20135;-72
2022/11/24 08:23:41;;;;;;;35.55;16.65;;;;;;;4.32;100.00;100243.81;4999914;28;20097;-72
2022/11/24 08:26:14;;;;;;;40.78;17.23;;;;;;;4.29;100.00;100247.56;4996927;28;20053;-72
2022/11/24 08:28:40;;;;;;;48.53;17.40;;;;;;;4.32;100.00;100249.09;4987566;28;20034;-72
2022/11/24 08:31:08;;;;;;;49.10;16.35;;;;;;;4.35;100.00;100241.72;4988353;28;20419;-72
2022/11/24 08:33:34;;;;;;;36.40;16.33;;;;;;;4.39;100.00;100245.78;4989513;28;20038;-72
2022/11/24 08:36:09;;;;;;;41.47;17.65;;;;;;;4.35;100.00;100243.53;4997073;28;20037;-72
2022/11/24 08:38:35;;;;;;;38.45;15.50;;;;;;;4.44;100.00;100248.84;4989661;28;20034;-72
2022/11/24 08:41:09;;;;;;;37.65;16.02;;;;;;;4.41;100.00;100248.28;4989444;28;20121;-72
2022/11/24 08:43:35;;;;;;;41.38;15.88;;;;;;;4.38;100.00;100241.47;4989503;28;20121;-72
2022/11/24 08:46:02;;;;;;;35.83;16.57;;;;;;;4.46;100.00;100248.72;4988410;28;20456;-72
2022/11/24 08:48:28;;;;;;;36.88;16.50;;;;;;;4.44;100.00;100251.50;4989590;28;20342;-72
2022/11/24 08:50:54;;;;;;;;;;;;;;;4.53;100.00;100257.78;4988124;28;20101;-72
2022/11/24 08:53:19;;;;;;;33.22;15.23;;;;;;;4.53;100.00;100251.66;5001103;28;19975;-72
2022/11/24 08:55:44;;;;;;;35.10;15.73;;;;;;;4.59;100.00;100259.91;5007732;28;20080;-72
2022/11/24 08:58:10;;;;;;;34.80;15.37;;;;;;;4.50;100.00;100255.41;5007984;28;20053;-72
2022/11/24 09:00:35;;;;;;;43.20;16.23;;;;;;;4.58;100.00;100260.84;4988067;28;20030;-72
2022/11/24 09:03:01;;;;;;;39.30;16.67;;;;;;;4.60;100.00;100263.38;5016639;28;20964;-72
2022/11/24 09:05:26;;;;;;;26.90;14.47;;;;;;;4.68;100.00;100266.16;5017687;28;20030;-72
2022/11/24 09:07:51;;;;;;;37.90;16.30;;;;;;;4.69;100.00;100267.03;4995578;28;20273;-73
2022/11/24 09:10:17;;;;;;;37.90;16.20;;;;;;;4.71;100.00;100265.91;4991574;28;20043;-72
2022/11/24 09:12:44;;;;;;;26.33;14.60;;;;;;;4.76;100.00;100268.16;4990265;28;20034;-72
2022/11/24 09:15:10;;;;;;;36.15;14.52;;;;;;;4.72;100.00;100266.72;4990610;28;20066;-72
2022/11/24 09:17:36;;;;;;;38.60;14.57;;;;;;;4.85;100.00;100264.69;4989087;28;20034;-72
2022/11/24 09:20:02;;;;;;;38.57;17.03;;;;;;;4.89;100.00;100268.69;4988992;28;20455;-72
2022/11/24 09:22:29;;;;;;;;;;;;;;;5.04;100.00;100277.09;4989325;28;20049;-72
2022/11/24 09:24:54;;;;;;;33.83;14.30;;;;;;;5.01;100.00;100266.75;4994555;28;20318;-72
2022/11/24 09:27:19;;;;;;;35.23;14.43;;;;;;;5.01;100.00;100266.75;5005493;28;20044;-72
2022/11/24 09:29:45;;;;;;;34.30;13.20;;;;;;;5.13;100.00;100270.97;4988794;28;20042;-72
2022/11/24 09:32:10;;;;;;;38.80;13.13;;;;;;;5.23;100.00;100273.59;4993368;28;20030;-73
2022/11/24 09:34:35;;;;;;;30.10;12.77;;;;;;;5.20;100.00;100271.25;5008119;28;20096;-72
2022/11/24 09:37:00;;;;;;;34.10;15.03;;;;;;;5.33;100.00;100261.19;5004184;28;20034;-72
2022/11/24 09:39:26;;;;;;;30.43;12.80;;;;;;;5.32;100.00;100264.00;4987303;28;20054;-72
2022/11/24 09:42:22;;;;;;;25.00;13.27;;;;;;;5.31;100.00;100260.50;5000925;28;20041;-73
2022/11/24 09:45:11;;;;;;;29.98;12.75;;;;;;;5.47;100.00;100260.75;4986030;28;20077;-73
2022/11/24 09:48:07;;;;;;;30.48;12.82;;;;;;;5.52;100.00;100260.34;4988349;28;20049;-72
2022/11/24 09:50:37;;;;;;;27.75;11.45;;;;;;;5.50;100.00;100262.28;4981454;28;20058;-72
2022/11/24 09:53:09;;;;;;;35.88;12.73;;;;;;;5.50;100.00;100263.16;4988316;28;20109;-72
2022/11/24 09:55:43;;;;;;;22.58;11.07;;;;;;;5.68;100.00;100273.84;4992086;28;20035;-72
2022/11/24 09:58:27;;;;;;;27.88;13.32;;;;;;;5.78;100.00;100267.69;4988337;28;20040;-72
2022/11/24 10:00:54;;;;;;;27.30;12.65;;;;;;;5.68;100.00;100267.69;4986850;28;20034;-72
2022/11/24 10:03:33;;;;;;;24.23;12.85;;;;;;;5.70;100.00;100273.69;4986938;28;20517;-72
2022/11/24 10:06:03;;;;;;;25.08;12.15;;;;;;;5.65;100.00;100275.94;4986628;28;20042;-72
2022/11/24 10:08:52;;;;;;;28.20;12.18;;;;;;;5.62;100.00;100274.41;4986728;28;20026;-72
2022/11/24 10:11:33;;;;;;;37.67;15.07;;;;;;;5.69;100.00;100280.00;4992867;28;20042;-72
2022/11/24 10:14:35;;;;;;;26.45;12.48;;;;;;;5.64;100.00;100275.13;5007364;28;20172;-72
2022/11/24 10:17:18;;;;;;;31.05;12.40;;;;;;;5.66;100.00;100269.66;4987834;28;20271;-72
2022/11/24 10:20:03;;;;;;;26.13;11.48;;;;;;;5.70;100.00;100282.47;5002378;28;20646;-72
2022/11/24 10:22:43;;;;;;;23.38;11.43;;;;;;;5.70;100.00;100279.00;4989924;28;20117;-72
2022/11/24 10:25:19;;;;;;;25.85;10.43;;;;;;;5.74;100.00;100290.16;4987764;28;20034;-72
2022/11/24 10:27:54;;;;;;;31.73;11.43;;;;;;;5.72;100.00;100287.63;5001002;28;20037;-72
2022/11/24 10:30:25;;;;;;;31.35;13.55;;;;;;;5.83;100.00;100290.13;4999763;28;20057;-73
2022/11/24 10:33:02;;;;;;;26.25;12.13;;;;;;;5.82;100.00;100291.09;4999086;28;20030;-72
2022/11/24 10:35:34;;;;;;;29.00;12.70;;;;;;;5.68;100.00;100291.53;5000460;28;20423;-72
2022/11/24 10:38:05;;;;;;;41.05;12.65;;;;;;;5.73;100.00;100294.59;4986617;28;20105;-72
2022/11/24 10:40:37;;;;;;;31.58;14.40;;;;;;;5.79;100.00;100298.50;4987405;28;20027;-73
2022/11/24 10:43:05;;;;;;;33.67;14.32;;;;;;;5.87;100.00;100306.56;4987586;28;20407;-72
2022/11/24 10:45:30;;;;;;;28.35;13.18;;;;;;;5.95;100.00;100295.28;4987386;28;20104;-72
2022/11/24 10:47:57;;;;;;;30.25;12.35;;;;;;;5.98;100.00;100300.31;4987642;28;20117;-72
2022/11/24 10:50:26;;;;;;;29.20;11.85;;;;;;;5.87;100.00;100295.97;4985891;28;20038;-72
2022/11/24 10:53:07;;;;;;;27.70;11.52;;;;;;;5.93;100.00;100309.47;4986964;28;20069;-72
2022/11/24 10:55:54;;;;;;;26.58;11.75;;;;;;;5.90;100.00;100301.81;4987002;28;20034;-72
2022/11/24 10:58:37;;;;;;;29.42;13.48;;;;;;;5.88;100.00;100302.94;4987023;28;20030;-72
2022/11/24 11:01:11;;;;;;;24.58;13.90;;;;;;;5.93;100.00;100301.53;4982328;28;20102;-73
2022/11/24 11:03:46;;;;;;;31.73;12.75;;;;;;;6.02;100.00;100301.69;4985869;28;20103;-73
2022/11/24 11:06:19;;;;;;;27.17;11.02;;;;;;;6.03;100.00;100304.19;4985016;28;20104;-72
2022/11/24 11:08:44;;;;;;;28.70;11.45;;;;;;;6.07;100.00;100302.09;5016892;28;20034;-72
2022/11/24 11:11:16;;;;;;;32.73;12.13;;;;;;;6.06;100.00;100309.22;4985166;28;20110;-72
2022/11/24 11:14:07;;;;;;;26.55;11.43;;;;;;;6.14;100.00;100313.78;5015326;28;20041;-73
2022/11/24 11:16:34;;;;;;;35.63;12.45;;;;;;;6.18;100.00;100317.81;5003187;28;20041;-74
2022/11/24 11:19:02;;;;;;;30.38;11.73;;;;;;;6.14;100.00;100308.47;5002342;28;20480;-74